createdAt,value
2022-07-29T00:00:49.504Z,17.7
2022-07-29T00:02:05.789Z,17.7
2022-07-29T00:03:22.091Z,17.6
2022-07-29T00:04:37.406Z,17.6
2022-07-29T00:05:52.724Z,17.6
2022-07-29T00:07:08.036Z,17.6
2022-07-29T00:08:23.353Z,17.6
2022-07-29T00:09:39.644Z,17.6
2022-07-29T00:10:55.937Z,17.6
2022-07-29T00:12:12.223Z,17.6
2022-07-29T00:13:28.516Z,17.7
2022-07-29T00:14:44.819Z,17.7
2022-07-29T00:16:01.101Z,17.6
2022-07-29T00:17:17.406Z,17.7
2022-07-29T00:18:33.686Z,17.6
2022-07-29T00:19:49.986Z,17.6
2022-07-29T00:21:05.311Z,17.6
2022-07-29T00:22:21.590Z,17.6
2022-07-29T00:23:37.898Z,17.5
2022-07-29T00:24:54.194Z,17.5
2022-07-29T00:26:10.471Z,17.5
2022-07-29T00:27:26.763Z,17.5
2022-07-29T00:28:43.066Z,17.4
2022-07-29T00:29:59.357Z,17.4
2022-07-29T00:31:15.662Z,17.3
2022-07-29T00:32:31.953Z,17.3
2022-07-29T00:33:47.256Z,17.3
2022-07-29T00:35:02.573Z,17.3
2022-07-29T00:36:17.880Z,17.3
2022-07-29T00:37:33.190Z,17.3
2022-07-29T00:38:49.483Z,17.3
2022-07-29T00:40:05.785Z,17.3
2022-07-29T00:41:22.084Z,17.3
2022-07-29T00:42:38.377Z,17.3
2022-07-29T00:43:54.665Z,17.2
2022-07-29T00:45:10.967Z,17.2
2022-07-29T00:46:27.256Z,17.2
2022-07-29T00:47:43.551Z,17.2
2022-07-29T00:48:59.832Z,17.2
2022-07-29T00:50:16.132Z,17.1
2022-07-29T00:51:32.423Z,17.1
2022-07-29T00:52:48.731Z,17.1
2022-07-29T00:54:04.029Z,17.1
2022-07-29T00:55:20.319Z,17.1
2022-07-29T00:56:36.618Z,17.2
2022-07-29T00:57:52.921Z,17.2
2022-07-29T00:59:09.207Z,17.2
2022-07-29T01:01:41.793Z,17.1
2022-07-29T01:02:58.077Z,17.1
2022-07-29T01:04:13.407Z,17.1
2022-07-29T01:05:28.703Z,17.1
2022-07-29T01:06:45.002Z,17.1
2022-07-29T01:08:01.306Z,17.2
2022-07-29T01:09:17.600Z,17.2
2022-07-29T01:10:33.881Z,17.1
2022-07-29T01:11:50.184Z,17.1
2022-07-29T01:13:06.474Z,17.1
2022-07-29T01:14:22.766Z,17.2
2022-07-29T01:15:39.054Z,17.1
2022-07-29T01:16:55.361Z,17.1
2022-07-29T01:18:11.643Z,17.1
2022-07-29T01:19:27.932Z,17.1
2022-07-29T01:20:44.227Z,17.1
2022-07-29T01:21:59.538Z,17.1
2022-07-29T01:23:15.835Z,17.1
2022-07-29T01:24:32.132Z,17.1
2022-07-29T01:25:48.430Z,17.1
2022-07-29T01:27:04.719Z,17.1
2022-07-29T01:28:21.006Z,17.1
2022-07-29T01:29:37.313Z,17.1
2022-07-29T01:30:52.612Z,17.1
2022-07-29T01:32:07.926Z,17.1
2022-07-29T01:33:23.241Z,17.1
2022-07-29T01:34:38.548Z,17.1
2022-07-29T01:35:54.851Z,17.1
2022-07-29T01:37:11.141Z,17.1
2022-07-29T01:38:27.444Z,17.1
2022-07-29T01:39:43.735Z,17.1
2022-07-29T01:41:00.029Z,17
2022-07-29T01:42:16.307Z,17
2022-07-29T01:43:32.611Z,17
2022-07-29T01:44:48.903Z,17
2022-07-29T01:46:05.188Z,17
2022-07-29T01:47:21.481Z,17
2022-07-29T01:48:37.784Z,17
2022-07-29T01:49:54.072Z,17
2022-07-29T01:51:09.389Z,17
2022-07-29T01:52:25.677Z,17
2022-07-29T01:53:41.959Z,16.9
2022-07-29T01:54:58.265Z,16.9
2022-07-29T01:56:14.552Z,16.9
2022-07-29T01:57:30.857Z,16.9
2022-07-29T01:58:47.136Z,16.9
2022-07-29T02:00:02.460Z,16.9
2022-07-29T02:01:17.767Z,16.8
2022-07-29T02:02:33.084Z,16.8
2022-07-29T02:03:48.391Z,16.8
2022-07-29T02:05:04.676Z,16.7
2022-07-29T02:06:20.968Z,16.7
2022-07-29T02:07:37.263Z,16.7
2022-07-29T02:08:53.564Z,16.7
2022-07-29T02:10:09.859Z,16.6
2022-07-29T02:11:26.149Z,16.7
2022-07-29T02:12:42.449Z,16.6
2022-07-29T02:13:58.734Z,16.7
2022-07-29T02:15:15.031Z,16.6
2022-07-29T02:16:31.330Z,16.6
2022-07-29T02:17:47.611Z,16.6
2022-07-29T02:19:03.913Z,16.6
2022-07-29T02:20:19.211Z,16.7
2022-07-29T02:21:35.518Z,16.6
2022-07-29T02:22:51.795Z,16.7
2022-07-29T02:24:08.101Z,16.6
2022-07-29T02:25:24.381Z,16.6
2022-07-29T02:26:40.674Z,16.7
2022-07-29T02:27:56.978Z,16.6
2022-07-29T02:29:12.298Z,16.6
2022-07-29T02:30:27.605Z,16.6
2022-07-29T02:31:42.905Z,16.6
2022-07-29T02:32:58.214Z,16.6
2022-07-29T02:34:14.512Z,16.6
2022-07-29T02:35:30.804Z,16.6
2022-07-29T02:36:47.110Z,16.6
2022-07-29T02:38:03.396Z,16.6
2022-07-29T02:39:19.692Z,16.6
2022-07-29T02:40:35.978Z,16.6
2022-07-29T02:41:52.271Z,16.6
2022-07-29T02:43:08.564Z,16.6
2022-07-29T02:44:24.861Z,16.7
2022-07-29T02:45:41.147Z,16.6
2022-07-29T02:46:57.436Z,16.6
2022-07-29T02:48:13.740Z,16.6
2022-07-29T02:49:29.043Z,16.6
2022-07-29T02:50:45.337Z,16.6
2022-07-29T02:52:01.626Z,16.6
2022-07-29T02:53:17.932Z,16.6
2022-07-29T02:54:34.221Z,16.7
2022-07-29T02:55:50.506Z,16.6
2022-07-29T02:57:06.802Z,16.6
2022-07-29T02:58:22.073Z,16.6
2022-07-29T02:59:37.385Z,16.5
2022-07-29T03:00:52.691Z,16.5
2022-07-29T03:02:08.011Z,16.6
2022-07-29T03:03:24.301Z,16.6
2022-07-29T03:04:40.537Z,16.5
2022-07-29T03:05:56.796Z,16.6
2022-07-29T03:07:13.030Z,16.5
2022-07-29T03:08:29.325Z,16.5
2022-07-29T03:09:45.614Z,16.5
2022-07-29T03:11:01.910Z,16.5
2022-07-29T03:12:18.196Z,16.4
2022-07-29T03:13:34.493Z,16.4
2022-07-29T03:14:50.778Z,16.4
2022-07-29T03:16:07.035Z,16.5
2022-07-29T03:17:23.267Z,16.4
2022-07-29T03:18:38.514Z,16.4
2022-07-29T03:19:54.752Z,16.4
2022-07-29T03:21:10.992Z,16.4
2022-07-29T03:22:27.245Z,16.4
2022-07-29T03:23:43.485Z,16.5
2022-07-29T03:24:59.723Z,16.4
2022-07-29T03:26:15.962Z,16.4
2022-07-29T03:27:31.226Z,16.4
2022-07-29T03:28:46.483Z,16.4
2022-07-29T03:30:02.723Z,16.3
2022-07-29T03:31:18.949Z,16.4
2022-07-29T03:32:35.187Z,16.3
2022-07-29T03:33:51.431Z,16.2
2022-07-29T03:35:07.662Z,16.2
2022-07-29T03:36:23.922Z,16.2
2022-07-29T03:37:40.000Z,16.2
2022-07-29T03:38:56.382Z,16.2
2022-07-29T03:40:12.620Z,16.2
2022-07-29T03:41:28.869Z,16.2
2022-07-29T03:42:45.096Z,16.2
2022-07-29T03:44:01.335Z,16.2
2022-07-29T03:45:16.601Z,16.1
2022-07-29T03:46:32.839Z,16.1
2022-07-29T03:47:49.080Z,16.1
2022-07-29T03:49:05.326Z,16.2
2022-07-29T03:50:21.553Z,16.1
2022-07-29T03:51:37.797Z,16.1
2022-07-29T03:52:54.034Z,16.2
2022-07-29T03:54:09.297Z,16.2
2022-07-29T03:55:24.557Z,16.3
2022-07-29T03:56:39.809Z,16.3
2022-07-29T03:57:55.078Z,16.3
2022-07-29T03:59:11.302Z,16.3
2022-07-29T04:00:26.575Z,16.3
2022-07-29T04:01:41.818Z,16.3
2022-07-29T04:02:58.064Z,16.3
2022-07-29T04:04:14.316Z,16.3
2022-07-29T04:05:30.546Z,16.3
2022-07-29T04:06:46.780Z,16.3
2022-07-29T04:08:03.019Z,16.3
2022-07-29T04:09:19.264Z,16.4
2022-07-29T04:10:35.499Z,16.3
2022-07-29T04:11:51.747Z,16.3
2022-07-29T04:13:07.991Z,16.3
2022-07-29T04:14:24.230Z,16.4
2022-07-29T04:15:40.462Z,16.4
2022-07-29T04:16:56.695Z,16.4
2022-07-29T04:18:11.956Z,16.4
2022-07-29T04:19:28.202Z,16.4
2022-07-29T04:20:44.443Z,16.4
2022-07-29T04:22:00.678Z,16.4
2022-07-29T04:23:16.914Z,16.4
2022-07-29T04:24:33.160Z,16.4
2022-07-29T04:25:49.394Z,16.5
2022-07-29T04:27:04.652Z,16.4
2022-07-29T04:28:19.914Z,16.5
2022-07-29T04:29:36.144Z,16.5
2022-07-29T04:30:52.379Z,16.5
2022-07-29T04:32:07.661Z,16.5
2022-07-29T04:33:22.910Z,16.6
2022-07-29T04:34:39.140Z,16.5
2022-07-29T04:35:54.399Z,16.5
2022-07-29T04:37:10.648Z,16.6
2022-07-29T04:38:26.877Z,16.6
2022-07-29T04:39:43.133Z,16.6
2022-07-29T04:40:59.352Z,16.7
2022-07-29T04:42:15.612Z,16.7
2022-07-29T04:43:31.847Z,16.7
2022-07-29T04:44:48.086Z,16.7
2022-07-29T04:46:04.313Z,16.7
2022-07-29T04:47:20.550Z,16.7
2022-07-29T04:48:36.792Z,16.8
2022-07-29T04:49:53.027Z,16.8
2022-07-29T04:51:09.267Z,16.8
2022-07-29T04:52:24.532Z,16.8
2022-07-29T04:53:40.765Z,16.9
2022-07-29T04:54:57.002Z,16.9
2022-07-29T04:56:13.245Z,17
2022-07-29T04:57:29.495Z,17
2022-07-29T04:58:44.749Z,17
2022-07-29T05:00:00.004Z,17
2022-07-29T05:01:15.261Z,17
2022-07-29T05:02:30.512Z,17
2022-07-29T05:03:46.757Z,17.1
2022-07-29T05:05:02.989Z,17
2022-07-29T05:06:19.239Z,17.1
2022-07-29T05:07:35.479Z,17.1
2022-07-29T05:08:51.721Z,17.1
2022-07-29T05:10:07.947Z,17.1
2022-07-29T05:11:24.184Z,17.1
2022-07-29T05:12:40.424Z,17.2
2022-07-29T05:13:56.665Z,17.2
2022-07-29T05:15:12.905Z,17.3
2022-07-29T05:16:29.142Z,17.3
2022-07-29T05:17:45.382Z,17.3
2022-07-29T05:19:00.649Z,17.3
2022-07-29T05:20:16.876Z,17.3
2022-07-29T05:21:33.113Z,17.3
2022-07-29T05:22:49.355Z,17.3
2022-07-29T05:24:05.596Z,17.4
2022-07-29T05:25:21.844Z,17.4
2022-07-29T05:26:38.073Z,17.4
2022-07-29T05:27:53.341Z,17.5
2022-07-29T05:29:08.604Z,17.5
2022-07-29T05:30:24.825Z,17.5
2022-07-29T05:31:40.090Z,17.5
2022-07-29T05:32:55.344Z,17.6
2022-07-29T05:34:11.595Z,17.7
2022-07-29T05:35:27.823Z,17.7
2022-07-29T05:36:44.058Z,17.8
2022-07-29T05:38:00.310Z,17.8
2022-07-29T05:39:16.553Z,17.8
2022-07-29T05:40:32.787Z,17.9
2022-07-29T05:41:49.031Z,18
2022-07-29T05:43:05.260Z,18
2022-07-29T05:44:21.499Z,18
2022-07-29T05:45:37.745Z,18.1
2022-07-29T05:46:53.986Z,18.1
2022-07-29T05:48:10.225Z,18.1
2022-07-29T05:49:25.470Z,18.2
2022-07-29T05:50:41.707Z,18.3
2022-07-29T05:51:57.950Z,18.3
2022-07-29T05:53:14.188Z,18.3
2022-07-29T05:54:30.426Z,18.3
2022-07-29T05:55:46.667Z,18.3
2022-07-29T05:57:02.921Z,18.3
2022-07-29T05:58:18.182Z,18.4
2022-07-29T05:59:33.436Z,18.4
2022-07-29T06:00:48.698Z,18.4
2022-07-29T06:02:03.956Z,18.5
2022-07-29T06:03:19.197Z,18.5
2022-07-29T06:04:34.458Z,18.5
2022-07-29T06:05:50.694Z,18.5
2022-07-29T06:07:06.933Z,18.5
2022-07-29T06:08:23.181Z,18.6
2022-07-29T06:09:39.417Z,18.6
2022-07-29T06:10:55.671Z,18.6
2022-07-29T06:12:11.911Z,18.7
2022-07-29T06:13:28.150Z,18.7
2022-07-29T06:14:44.396Z,18.8
2022-07-29T06:16:00.619Z,18.8
2022-07-29T06:17:16.864Z,18.8
2022-07-29T06:18:33.097Z,18.8
2022-07-29T06:19:49.337Z,18.8
2022-07-29T06:21:04.602Z,18.8
2022-07-29T06:22:20.836Z,18.8
2022-07-29T06:23:37.092Z,18.8
2022-07-29T06:24:53.327Z,18.8
2022-07-29T06:26:09.569Z,18.8
2022-07-29T06:27:25.799Z,18.9
2022-07-29T06:28:42.041Z,18.9
2022-07-29T06:29:57.295Z,18.9
2022-07-29T06:31:12.570Z,18.9
2022-07-29T06:32:28.802Z,18.9
2022-07-29T06:33:45.046Z,18.9
2022-07-29T06:35:01.282Z,18.9
2022-07-29T06:36:17.527Z,19
2022-07-29T06:37:33.772Z,19
2022-07-29T06:38:49.996Z,19.1
2022-07-29T06:40:06.252Z,19.2
2022-07-29T06:41:22.480Z,19.2
2022-07-29T06:42:38.734Z,19.2
2022-07-29T06:43:54.963Z,19.3
2022-07-29T06:45:11.198Z,19.4
2022-07-29T06:46:27.438Z,19.4
2022-07-29T06:47:42.697Z,19.4
2022-07-29T06:48:58.939Z,19.4
2022-07-29T06:50:15.186Z,19.5
2022-07-29T06:51:31.425Z,19.5
2022-07-29T06:52:47.665Z,19.5
2022-07-29T06:54:03.901Z,19.5
2022-07-29T06:55:20.140Z,19.6
2022-07-29T06:56:35.410Z,19.6
2022-07-29T06:57:50.652Z,19.7
2022-07-29T06:59:06.893Z,19.7
2022-07-29T07:00:23.149Z,19.7
2022-07-29T07:01:39.380Z,19.7
2022-07-29T07:02:55.625Z,19.7
2022-07-29T07:04:11.864Z,19.6
2022-07-29T07:05:28.089Z,19.6
2022-07-29T07:06:44.348Z,19.7
2022-07-29T07:08:00.582Z,19.7
2022-07-29T07:09:16.821Z,19.7
2022-07-29T07:10:33.068Z,19.6
2022-07-29T07:11:49.303Z,19.7
2022-07-29T07:13:05.539Z,19.7
2022-07-29T07:14:20.800Z,19.8
2022-07-29T07:15:37.037Z,19.8
2022-07-29T07:16:53.281Z,19.9
2022-07-29T07:18:09.508Z,20
2022-07-29T07:19:25.753Z,20.1
2022-07-29T07:20:42.005Z,20.1
2022-07-29T07:21:58.230Z,20.3
2022-07-29T07:23:13.498Z,20.3
2022-07-29T07:24:28.751Z,20.4
2022-07-29T07:25:44.984Z,20.6
2022-07-29T07:27:01.225Z,20.6
2022-07-29T07:28:17.474Z,20.8
2022-07-29T07:29:33.719Z,20.9
2022-07-29T07:30:49.944Z,20.9
2022-07-29T07:32:06.195Z,21
2022-07-29T07:33:22.428Z,21
2022-07-29T07:34:38.663Z,21.1
2022-07-29T07:35:54.915Z,21.2
2022-07-29T07:37:11.160Z,21.2
2022-07-29T07:38:27.401Z,21.2
2022-07-29T07:39:43.632Z,21.2
2022-07-29T07:40:58.891Z,21.1
2022-07-29T07:42:15.132Z,21.1
2022-07-29T07:43:31.365Z,21.2
2022-07-29T07:44:47.612Z,21.2
2022-07-29T07:46:03.845Z,21.2
2022-07-29T07:47:20.089Z,21.2
2022-07-29T07:48:36.324Z,21.2
2022-07-29T07:49:51.598Z,21.3
2022-07-29T07:51:06.858Z,21.3
2022-07-29T07:52:22.117Z,21.3
2022-07-29T07:53:37.365Z,21.4
2022-07-29T07:54:52.639Z,21.4
2022-07-29T07:56:07.886Z,21.5
2022-07-29T07:57:24.116Z,21.6
2022-07-29T07:58:40.368Z,21.7
2022-07-29T07:59:56.608Z,21.8
2022-07-29T08:01:12.851Z,21.9
2022-07-29T08:02:29.084Z,21.9
2022-07-29T08:03:45.332Z,22
2022-07-29T08:05:01.572Z,22.1
2022-07-29T08:06:17.806Z,22.1
2022-07-29T08:07:34.057Z,22.1
2022-07-29T08:08:50.282Z,22
2022-07-29T08:10:06.522Z,22
2022-07-29T08:11:22.762Z,22.1
2022-07-29T08:12:38.034Z,22.1
2022-07-29T08:13:54.272Z,22.1
2022-07-29T08:15:10.501Z,22.2
2022-07-29T08:16:26.757Z,22.3
2022-07-29T08:17:42.978Z,22.4
2022-07-29T08:18:59.227Z,22.5
2022-07-29T08:20:15.461Z,22.6
2022-07-29T08:21:30.740Z,22.7
2022-07-29T08:22:45.979Z,22.7
2022-07-29T08:24:02.233Z,22.8
2022-07-29T08:25:18.469Z,22.9
2022-07-29T08:26:34.703Z,23
2022-07-29T08:27:50.950Z,23.1
2022-07-29T08:29:07.187Z,23.2
2022-07-29T08:30:23.421Z,23.3
2022-07-29T08:31:39.656Z,23.4
2022-07-29T08:32:55.907Z,23.4
2022-07-29T08:34:12.135Z,23.5
2022-07-29T08:35:28.383Z,23.6
2022-07-29T08:36:44.630Z,23.7
2022-07-29T08:38:00.852Z,23.8
2022-07-29T08:39:16.123Z,24
2022-07-29T08:40:32.355Z,24
2022-07-29T08:41:48.589Z,24.1
2022-07-29T08:43:04.836Z,24.2
2022-07-29T08:44:21.085Z,24.2
2022-07-29T08:45:37.314Z,24.2
2022-07-29T08:46:53.548Z,24.3
2022-07-29T08:48:09.795Z,24.4
2022-07-29T08:49:26.027Z,24.4
2022-07-29T08:50:41.293Z,24.4
2022-07-29T08:51:57.530Z,24.4
2022-07-29T08:53:13.772Z,24.6
2022-07-29T08:54:30.014Z,24.7
2022-07-29T08:55:46.257Z,24.8
2022-07-29T08:57:02.485Z,24.9
2022-07-29T08:58:18.723Z,24.9
2022-07-29T08:59:34.957Z,24.9
2022-07-29T09:00:51.202Z,25.1
2022-07-29T09:02:07.454Z,25.3
2022-07-29T09:03:23.689Z,25.4
2022-07-29T09:04:39.917Z,25.5
2022-07-29T09:05:56.163Z,25.6
2022-07-29T09:07:11.425Z,25.7
2022-07-29T09:08:27.649Z,25.9
2022-07-29T09:09:43.892Z,26
2022-07-29T09:11:00.141Z,26.1
2022-07-29T09:12:16.368Z,26.1
2022-07-29T09:13:32.603Z,26.2
2022-07-29T09:14:48.850Z,26.3
2022-07-29T09:16:05.097Z,26.4
2022-07-29T09:17:21.319Z,26.4
2022-07-29T09:18:37.555Z,26.6
2022-07-29T09:19:53.796Z,26.7
2022-07-29T09:21:10.049Z,26.7
2022-07-29T09:22:26.292Z,26.7
2022-07-29T09:23:41.536Z,26.7
2022-07-29T09:24:57.779Z,26.6
2022-07-29T09:26:14.013Z,26.7
2022-07-29T09:27:30.254Z,26.7
2022-07-29T09:28:46.481Z,26.7
2022-07-29T09:30:02.718Z,26.8
2022-07-29T09:31:18.957Z,26.8
2022-07-29T09:32:35.207Z,26.9
2022-07-29T09:33:51.441Z,26.9
2022-07-29T09:35:07.685Z,26.9
2022-07-29T09:36:23.921Z,26.8
2022-07-29T09:37:40.159Z,26.7
2022-07-29T09:38:56.389Z,26.7
2022-07-29T09:40:11.645Z,26.8
2022-07-29T09:41:27.880Z,26.7
2022-07-29T09:42:44.125Z,26.8
2022-07-29T09:44:00.356Z,26.9
2022-07-29T09:45:16.594Z,27
2022-07-29T09:46:32.850Z,26.9
2022-07-29T09:47:49.088Z,26.8
2022-07-29T09:49:05.321Z,26.9
2022-07-29T09:50:21.565Z,26.8
2022-07-29T09:51:37.805Z,26.8
2022-07-29T09:52:54.031Z,26.7
2022-07-29T09:54:10.280Z,26.6
2022-07-29T09:55:26.518Z,26.6
2022-07-29T09:57:58.002Z,26.7
2022-07-29T09:59:14.245Z,26.8
2022-07-29T10:00:30.471Z,26.8
2022-07-29T10:01:46.728Z,26.8
2022-07-29T10:03:02.953Z,26.9
2022-07-29T10:04:19.192Z,27.1
2022-07-29T10:05:35.442Z,27.3
2022-07-29T10:06:51.680Z,27.4
2022-07-29T10:08:07.913Z,27.7
2022-07-29T10:09:24.160Z,27.9
2022-07-29T10:10:40.396Z,28
2022-07-29T10:11:56.624Z,28
2022-07-29T10:13:11.874Z,28
2022-07-29T10:14:28.123Z,27.9
2022-07-29T10:15:44.360Z,27.8
2022-07-29T10:17:00.602Z,27.9
2022-07-29T10:18:16.829Z,27.9
2022-07-29T10:19:33.064Z,28.1
2022-07-29T10:20:49.320Z,28.2
2022-07-29T10:22:05.545Z,28.2
2022-07-29T10:23:21.787Z,28.1
2022-07-29T10:24:38.022Z,28.1
2022-07-29T10:25:54.268Z,28.1
2022-07-29T10:27:10.505Z,28.1
2022-07-29T10:28:26.752Z,28.3
2022-07-29T10:29:42.000Z,28.4
2022-07-29T10:30:58.240Z,28.4
2022-07-29T10:32:14.487Z,28.4
2022-07-29T10:33:30.718Z,28.5
2022-07-29T10:34:46.946Z,28.6
2022-07-29T10:36:03.186Z,28.9
2022-07-29T10:37:19.437Z,29.2
2022-07-29T10:38:35.678Z,29.2
2022-07-29T10:39:51.919Z,29.2
2022-07-29T10:41:08.158Z,29.3
2022-07-29T10:42:24.381Z,29.2
2022-07-29T10:43:40.625Z,29.3
2022-07-29T10:44:56.878Z,29.5
2022-07-29T10:46:12.124Z,29.6
2022-07-29T10:47:28.365Z,29.5
2022-07-29T10:48:44.610Z,29.7
2022-07-29T10:50:00.848Z,29.3
2022-07-29T10:51:17.074Z,29.3
2022-07-29T10:52:33.327Z,29.2
2022-07-29T10:53:49.550Z,29.4
2022-07-29T10:55:05.800Z,29.6
2022-07-29T10:56:22.027Z,29.9
2022-07-29T10:57:38.273Z,30.1
2022-07-29T10:58:54.516Z,30.3
2022-07-29T11:00:10.745Z,30.3
2022-07-29T11:01:27.004Z,30.5
2022-07-29T11:02:42.258Z,30.7
2022-07-29T11:03:58.487Z,30.9
2022-07-29T11:05:14.728Z,31.1
2022-07-29T11:06:30.974Z,31.3
2022-07-29T11:07:47.202Z,31.3
2022-07-29T11:09:03.454Z,31
2022-07-29T11:10:19.691Z,30.8
2022-07-29T11:11:35.930Z,30.8
2022-07-29T11:12:52.155Z,30.7
2022-07-29T11:14:08.411Z,31
2022-07-29T11:15:24.636Z,30.9
2022-07-29T11:16:40.881Z,30.5
2022-07-29T11:17:57.111Z,30.3
2022-07-29T11:19:12.387Z,30.2
2022-07-29T11:20:28.625Z,30.1
2022-07-29T11:21:44.849Z,30.1
2022-07-29T11:23:01.087Z,30.3
2022-07-29T11:24:17.332Z,30.5
2022-07-29T11:25:33.567Z,30.6
2022-07-29T11:26:49.811Z,30.7
2022-07-29T11:28:06.064Z,30.9
2022-07-29T11:29:22.298Z,31.2
2022-07-29T11:30:38.538Z,31.5
2022-07-29T11:31:54.784Z,31.6
2022-07-29T11:33:11.025Z,31.8
2022-07-29T11:34:27.256Z,31.6
2022-07-29T11:35:42.503Z,31.3
2022-07-29T11:36:58.761Z,31.1
2022-07-29T11:38:14.994Z,30.9
2022-07-29T11:39:31.229Z,31
2022-07-29T11:40:47.475Z,31.3
2022-07-29T11:42:03.710Z,31.7
2022-07-29T11:43:19.951Z,32
2022-07-29T11:44:36.199Z,32.2
2022-07-29T11:45:52.438Z,32.3
2022-07-29T11:47:08.668Z,32.3
2022-07-29T11:48:24.912Z,32.3
2022-07-29T11:49:41.144Z,32.3
2022-07-29T11:50:57.381Z,32.1
2022-07-29T11:52:12.645Z,32.1
2022-07-29T11:53:28.892Z,32.2
2022-07-29T11:54:45.120Z,32.2
2022-07-29T11:56:01.359Z,32
2022-07-29T11:57:17.611Z,32.1
2022-07-29T11:58:33.848Z,32.1
2022-07-29T11:59:50.080Z,32.2
2022-07-29T12:01:06.339Z,32.2
2022-07-29T12:02:22.558Z,31.6
2022-07-29T12:03:38.815Z,31.6
2022-07-29T12:04:55.039Z,31.1
2022-07-29T12:06:11.293Z,31.2
2022-07-29T12:07:27.534Z,31.2
2022-07-29T12:08:42.788Z,31.1
2022-07-29T12:09:59.021Z,31.2
2022-07-29T12:11:15.273Z,31.3
2022-07-29T12:12:31.504Z,31.8
2022-07-29T12:13:47.753Z,32.1
2022-07-29T12:15:03.988Z,32.4
2022-07-29T12:16:20.227Z,32.6
2022-07-29T12:17:36.468Z,32.9
2022-07-29T12:18:52.711Z,33
2022-07-29T12:20:08.945Z,33.1
2022-07-29T12:21:25.188Z,33.1
2022-07-29T12:22:41.434Z,33.2
2022-07-29T12:23:57.667Z,33.4
2022-07-29T12:25:12.921Z,33.6
2022-07-29T12:26:29.152Z,33.4
2022-07-29T12:27:45.407Z,33.5
2022-07-29T12:29:01.646Z,33.7
2022-07-29T12:30:17.874Z,33.9
2022-07-29T12:31:34.128Z,33.7
2022-07-29T12:32:50.362Z,32.7
2022-07-29T12:34:06.607Z,32.5
2022-07-29T12:35:22.834Z,32.2
2022-07-29T12:36:39.074Z,32.2
2022-07-29T12:37:55.327Z,32.1
2022-07-29T12:39:11.557Z,31.8
2022-07-29T12:40:27.797Z,31.5
2022-07-29T12:41:43.064Z,31.4
2022-07-29T12:42:59.307Z,31.5
2022-07-29T12:44:15.542Z,31.9
2022-07-29T12:45:31.771Z,32.3
2022-07-29T12:46:48.014Z,32.8
2022-07-29T12:48:04.263Z,33.3
2022-07-29T12:49:20.507Z,33.5
2022-07-29T12:50:36.740Z,33.6
2022-07-29T12:51:52.981Z,33.8
2022-07-29T12:53:09.228Z,33.9
2022-07-29T12:54:25.460Z,33.9
2022-07-29T12:55:41.690Z,33.9
2022-07-29T12:56:57.940Z,33.2
2022-07-29T12:58:13.184Z,32.4
2022-07-29T12:59:29.423Z,31.9
2022-07-29T13:00:45.666Z,31
2022-07-29T13:02:01.918Z,30.8
2022-07-29T13:03:18.155Z,30.9
2022-07-29T13:04:34.382Z,30.9
2022-07-29T13:05:49.656Z,31.1
2022-07-29T13:07:05.900Z,31.3
2022-07-29T13:08:22.134Z,31.5
2022-07-29T13:09:38.372Z,31.1
2022-07-29T13:10:54.619Z,31.1
2022-07-29T13:12:10.859Z,31.3
2022-07-29T13:13:27.098Z,31.4
2022-07-29T13:14:43.333Z,31.4
2022-07-29T13:15:59.567Z,31.4
2022-07-29T13:17:15.813Z,31.4
2022-07-29T13:18:32.047Z,31.3
2022-07-29T13:19:48.287Z,31.1
2022-07-29T13:21:04.523Z,31.1
2022-07-29T13:22:19.793Z,31
2022-07-29T13:23:36.023Z,31
2022-07-29T13:24:52.262Z,30.9
2022-07-29T13:26:08.509Z,30.9
2022-07-29T13:27:24.748Z,30.9
2022-07-29T13:28:40.985Z,30.8
2022-07-29T13:29:57.236Z,30.6
2022-07-29T13:31:13.461Z,30.5
2022-07-29T13:32:29.704Z,30.4
2022-07-29T13:33:45.949Z,30.1
2022-07-29T13:35:02.195Z,29.7
2022-07-29T13:36:18.429Z,29.4
2022-07-29T13:37:34.672Z,29.3
2022-07-29T13:38:49.919Z,29.3
2022-07-29T13:40:06.171Z,29.3
2022-07-29T13:41:22.409Z,29.4
2022-07-29T13:42:38.645Z,29.3
2022-07-29T13:43:54.890Z,29.3
2022-07-29T13:45:11.121Z,29.5
2022-07-29T13:46:27.364Z,29.7
2022-07-29T13:47:43.605Z,29.8
2022-07-29T13:48:59.845Z,30
2022-07-29T13:50:16.093Z,30.1
2022-07-29T13:51:32.329Z,30.2
2022-07-29T13:52:48.574Z,30.4
2022-07-29T13:54:04.807Z,30.5
2022-07-29T13:55:20.060Z,30.6
2022-07-29T13:56:36.311Z,30.4
2022-07-29T13:57:52.545Z,30.3
2022-07-29T13:59:08.776Z,30.2
2022-07-29T14:00:25.023Z,29.9
2022-07-29T14:01:41.270Z,29.7
2022-07-29T14:02:57.512Z,29.6
2022-07-29T14:04:13.736Z,29.6
2022-07-29T14:05:29.992Z,29.8
2022-07-29T14:06:46.216Z,29.9
2022-07-29T14:08:02.469Z,30
2022-07-29T14:09:18.699Z,30
2022-07-29T14:10:34.948Z,30
2022-07-29T14:11:50.206Z,30
2022-07-29T14:13:06.437Z,30.1
2022-07-29T14:14:22.675Z,30.2
2022-07-29T14:15:38.927Z,30.5
2022-07-29T14:16:55.158Z,30.7
2022-07-29T14:18:11.402Z,30.8
2022-07-29T14:19:27.646Z,30.8
2022-07-29T14:20:43.889Z,30.7
2022-07-29T14:22:00.118Z,30.7
2022-07-29T14:23:16.368Z,30.5
2022-07-29T14:24:32.611Z,30.3
2022-07-29T14:25:48.853Z,30.2
2022-07-29T14:27:05.080Z,30.1
2022-07-29T14:28:20.330Z,30
2022-07-29T14:29:36.589Z,30.1
2022-07-29T14:30:52.827Z,30.1
2022-07-29T14:32:09.069Z,29.9
2022-07-29T14:33:25.291Z,29.7
2022-07-29T14:34:41.534Z,29.7
2022-07-29T14:35:57.785Z,29.9
2022-07-29T14:37:14.018Z,29.9
2022-07-29T14:38:30.266Z,29.7
2022-07-29T14:39:46.497Z,29.7
2022-07-29T14:41:02.736Z,29.8
2022-07-29T14:42:18.978Z,29.8
2022-07-29T14:43:35.224Z,29.8
2022-07-29T14:44:50.481Z,29.7
2022-07-29T14:46:06.712Z,29.8
2022-07-29T14:47:22.962Z,29.8
2022-07-29T14:48:39.205Z,29.9
2022-07-29T14:49:55.432Z,29.9
2022-07-29T14:51:11.687Z,29.9
2022-07-29T14:52:27.914Z,29.8
2022-07-29T14:53:44.158Z,29.8
2022-07-29T14:55:00.405Z,29.7
2022-07-29T14:56:16.636Z,29.7
2022-07-29T14:57:32.887Z,29.7
2022-07-29T14:58:49.111Z,29.7
2022-07-29T15:00:05.366Z,29.7
2022-07-29T15:01:20.608Z,29.6
2022-07-29T15:02:36.854Z,29.6
2022-07-29T15:03:53.091Z,29.6
2022-07-29T15:05:09.341Z,29.6
2022-07-29T15:06:25.571Z,29.5
2022-07-29T15:07:41.812Z,29.5
2022-07-29T15:08:58.058Z,29.6
2022-07-29T15:10:14.297Z,29.6
2022-07-29T15:11:30.533Z,29.5
2022-07-29T15:12:46.779Z,29.4
2022-07-29T15:14:03.020Z,29.4
2022-07-29T15:15:19.262Z,29.4
2022-07-29T15:16:35.497Z,29.4
2022-07-29T15:17:50.745Z,29.5
2022-07-29T15:19:06.996Z,29.5
2022-07-29T15:20:23.221Z,29.6
2022-07-29T15:21:39.464Z,29.6
2022-07-29T15:22:55.709Z,29.6
2022-07-29T15:24:11.948Z,29.6
2022-07-29T15:25:28.185Z,29.5
2022-07-29T15:26:44.432Z,29.5
2022-07-29T15:28:00.676Z,29.5
2022-07-29T15:29:16.919Z,29.5
2022-07-29T15:30:33.148Z,29.5
2022-07-29T15:31:49.395Z,29.4
2022-07-29T15:33:05.620Z,29.4
2022-07-29T15:34:20.893Z,29.2
2022-07-29T15:35:37.130Z,28.9
2022-07-29T15:36:53.359Z,28.6
2022-07-29T15:38:09.604Z,28.5
2022-07-29T15:39:25.846Z,28
2022-07-29T15:40:42.092Z,27.6
2022-07-29T15:41:58.325Z,27.1
2022-07-29T15:43:14.561Z,26.4
2022-07-29T15:44:30.815Z,25.8
2022-07-29T15:45:47.054Z,25.4
2022-07-29T15:47:03.279Z,25.2
2022-07-29T15:48:19.523Z,25
2022-07-29T15:49:35.763Z,25
2022-07-29T15:50:51.023Z,25
2022-07-29T15:52:07.257Z,24.8
2022-07-29T15:53:23.511Z,24.8
2022-07-29T15:54:39.744Z,24.8
2022-07-29T15:55:55.988Z,24.6
2022-07-29T15:57:12.219Z,24.4
2022-07-29T15:58:28.449Z,24.3
2022-07-29T15:59:44.701Z,24.3
2022-07-29T16:01:00.938Z,24.1
2022-07-29T16:02:17.182Z,24
2022-07-29T16:03:33.408Z,24
2022-07-29T16:04:49.656Z,24.1
2022-07-29T16:06:05.903Z,24.3
2022-07-29T16:07:21.144Z,24.3
2022-07-29T16:08:37.389Z,24.5
2022-07-29T16:09:53.632Z,25
2022-07-29T16:11:09.874Z,25.1
2022-07-29T16:12:26.113Z,24.9
2022-07-29T16:13:42.351Z,24.8
2022-07-29T16:14:58.587Z,24.5
2022-07-29T16:16:14.814Z,24.2
2022-07-29T16:17:31.063Z,24
2022-07-29T16:18:47.294Z,23.7
2022-07-29T16:20:03.534Z,23.6
2022-07-29T16:21:19.788Z,23.6
2022-07-29T16:22:36.028Z,23.5
2022-07-29T16:23:51.265Z,23.7
2022-07-29T16:25:07.515Z,23.8
2022-07-29T16:26:23.745Z,23.7
2022-07-29T16:27:39.996Z,23.8
2022-07-29T16:28:56.239Z,23.8
2022-07-29T16:30:12.472Z,23.7
2022-07-29T16:31:28.712Z,23.8
2022-07-29T16:32:44.000Z,23.8
2022-07-29T16:34:01.190Z,23.8
2022-07-29T16:35:17.435Z,23.7
2022-07-29T16:36:33.656Z,23.6
2022-07-29T16:37:49.904Z,23.5
2022-07-29T16:39:06.144Z,23.4
2022-07-29T16:40:21.403Z,23.4
2022-07-29T16:41:37.627Z,23.3
2022-07-29T16:42:53.861Z,23.3
2022-07-29T16:44:10.105Z,23.2
2022-07-29T16:45:26.332Z,23.3
2022-07-29T16:46:42.570Z,23.4
2022-07-29T16:47:58.826Z,23.4
2022-07-29T16:49:15.049Z,23.5
2022-07-29T16:50:31.300Z,23.5
2022-07-29T16:51:47.526Z,23.5
2022-07-29T16:53:03.766Z,23.6
2022-07-29T16:54:20.021Z,23.6
2022-07-29T16:55:36.245Z,23.7
2022-07-29T16:56:51.512Z,23.7
2022-07-29T16:58:07.740Z,23.7
2022-07-29T16:59:23.986Z,23.8
2022-07-29T17:00:40.230Z,23.8